Airfield :
LOGIN :

Register | Disclaimer

   EN    FR    IT 

 










Legend :    VFR   Marginal VFR   IFR   Intensive IFR   Very Intensive IFR
Visi :
Ceiling :
>= 8 km
>= 3000ft
5 to 8 km
1000 to 3000 ft
1500m to 5 km
500 to 1000 ft
800 to 1500m
200 to 500 ft
< 800m
< 200 ft
Symbols :   Thunderstorms  Fog  Heavy snow  Heavy precipitations  Wind > 20 kt
SIGMETs :     Misc.  Thunderstorms  Icing  Turbulence  Mountain Waves  Volcanic Ashes






- Airport Elevation : 55 ft


EGNO - Warton Preston

CURRENT METAR :
  • 061750Z 21002KT CAVOK 03/01 Q1038

EXPIRED METARs :
  • 061720Z 19004KT CAVOK 03/01 Q1039
  • 061650Z 20003KT CAVOK 04/01 Q1038
  • 061620Z 25004KT 220V280 9999 FEW028 06/02 Q1038
  • 061550Z 23004KT CAVOK 06/03 Q1038
  • 061520Z 23007KT CAVOK 06/02 Q1038

TAF TAF EGNO
Valid from the 06 at 15:00 until the 06 at 19:00 UTC


061354Z 0615/0619 18004KT 9999 FEW025
ATIS : +44 1772 856 060



MET'MAP, your aeronautical weather chart ! - Copyright ORBIFLY December 2007 - Disclaimer

ORBIFLY MET'MAP TEAM :

Programming & Development : Alexandra Zaïnal
Original concept : Baudouin d'Aumeries
Technical & hardware support : Manuel Goepfert
Assistance : Marc-Olivier Méhu




SOURCES & CREDITS :

   NOAA